Time;durP1;ratioP1;P1;durP2;ratioP2;P2;SDS_P1;SDS_P2;PMS_P1;PMS_P2;Temp;Humidity;BMP_temperature;BMP_pressure;BME280_temperature;BME280_humidity;BME280_pressure;Samples;Min_cycle;Max_cycle;Signal;HPM_P1;HPM_P2
2023/05/14 00:02:23;;;;;;;48.58;9.05;;;;;;;;;;5061614;28;20024;-72
2023/05/14 00:04:49;;;;;;;34.75;7.30;;;;;;;;;;5060233;28;20043;-71
2023/05/14 00:07:15;;;;;;;43.85;8.05;;;;;;;;;;5061321;28;20029;-72
2023/05/14 00:09:41;;;;;;;40.53;7.53;;;;;;;;;;5055714;28;20020;-73
2023/05/14 00:12:08;;;;;;;35.63;8.25;;;;;;;;;;5058466;28;20028;-73
2023/05/14 00:14:34;;;;;;;36.22;7.30;;;;;;;;;;5054953;28;20033;-72
2023/05/14 00:17:00;;;;;;;43.55;7.75;;;;;;;;;;5059402;28;20051;-73
2023/05/14 00:19:26;;;;;;;39.00;8.73;;;;;;;;;;5062012;28;20036;-71
2023/05/14 00:21:53;;;;;;;42.47;9.32;;;;;;;;;;5057241;28;20032;-72
2023/05/14 00:24:19;;;;;;;47.83;8.45;;;;;;;;;;5061652;28;20024;-71
2023/05/14 00:26:45;;;;;;;41.10;9.13;;;;;;;;;;5063355;28;20103;-72
2023/05/14 00:29:11;;;;;;;30.77;8.45;;;;;;;;;;5060947;28;20372;-72
2023/05/14 00:31:37;;;;;;;42.35;8.23;;;;;;;;;;5056367;28;20028;-72
2023/05/14 00:34:03;;;;;;;41.30;7.43;;;;;;;;;;5060411;28;20404;-72
2023/05/14 00:36:30;;;;;;;38.65;9.07;;;;;;;;;;5064307;28;20029;-71
2023/05/14 00:38:56;;;;;;;44.40;9.93;;;;;;;;;;5065889;28;20028;-71
2023/05/14 00:41:22;;;;;;;51.60;8.68;;;;;;;;;;5063717;28;20590;-71
2023/05/14 00:43:49;;;;;;;37.75;8.30;;;;;;;;;;5064356;28;20045;-72
2023/05/14 00:46:15;;;;;;;50.63;9.48;;;;;;;;;;5065546;28;20507;-71
2023/05/14 00:48:42;;;;;;;44.20;8.45;;;;;;;;;;5066300;28;20041;-71
2023/05/14 00:51:08;;;;;;;48.47;8.60;;;;;;;;;;5064697;28;20747;-71
2023/05/14 00:53:35;;;;;;;55.35;10.20;;;;;;;;;;5063673;28;20491;-71
2023/05/14 00:56:02;;;;;;;43.28;8.27;;;;;;;;;;5061285;28;20040;-72
2023/05/14 00:58:28;;;;;;;47.97;7.53;;;;;;;;;;5063896;28;20059;-72
2023/05/14 01:00:54;;;;;;;46.75;8.43;;;;;;;;;;5064994;28;20035;-71
2023/05/14 01:03:21;;;;;;;56.65;10.50;;;;;;;;;;5065942;28;20033;-72
2023/05/14 01:05:59;;;;;;;45.33;9.57;;;;;;;;;;5065024;28;20577;-72
2023/05/14 01:08:41;;;;;;;41.45;7.68;;;;;;;;;;5063609;28;20023;-71
2023/05/14 01:11:22;;;;;;;46.90;8.90;;;;;;;;;;5063921;28;20027;-72
2023/05/14 01:13:57;;;;;;;57.20;9.30;;;;;;;;;;5065648;28;20447;-72
2023/05/14 01:16:26;;;;;;;50.40;9.68;;;;;;;;;;5058181;28;21320;-72
2023/05/14 01:18:54;;;;;;;52.78;9.40;;;;;;;;;;5065731;28;20120;-71
2023/05/14 01:21:39;;;;;;;55.15;9.10;;;;;;;;;;5064435;28;20032;-72
2023/05/14 01:24:07;;;;;;;53.92;8.75;;;;;;;;;;5060167;28;20179;-73
2023/05/14 01:26:33;;;;;;;53.67;8.95;;;;;;;;;;5063227;28;20020;-71
2023/05/14 01:29:19;;;;;;;43.90;8.48;;;;;;;;;;5065473;28;20028;-71
2023/05/14 01:31:46;;;;;;;47.88;8.27;;;;;;;;;;5059983;28;20024;-71
2023/05/14 01:34:14;;;;;;;53.63;11.63;;;;;;;;;;5064950;28;20040;-70
2023/05/14 01:36:40;;;;;;;46.35;8.15;;;;;;;;;;5061905;28;20349;-70
2023/05/14 01:39:10;;;;;;;39.80;9.25;;;;;;;;;;5065182;28;20016;-70
2023/05/14 01:41:41;;;;;;;35.83;8.15;;;;;;;;;;5062094;28;20029;-70
2023/05/14 01:44:08;;;;;;;43.60;9.00;;;;;;;;;;5058635;28;20026;-70
2023/05/14 01:46:35;;;;;;;53.05;9.65;;;;;;;;;;5062204;28;20108;-69
2023/05/14 01:49:01;;;;;;;48.35;10.00;;;;;;;;;;5063250;28;20046;-70
2023/05/14 01:51:27;;;;;;;44.72;10.40;;;;;;;;;;5063864;28;20032;-70
2023/05/14 01:53:53;;;;;;;41.35;9.23;;;;;;;;;;5064799;28;20028;-71
2023/05/14 01:56:21;;;;;;;41.17;9.13;;;;;;;;;;5063136;28;20041;-70
2023/05/14 01:58:47;;;;;;;54.45;9.55;;;;;;;;;;5064363;28;20033;-71
2023/05/14 02:01:14;;;;;;;36.08;8.57;;;;;;;;;;5060793;28;20051;-69
2023/05/14 02:03:40;;;;;;;44.58;8.90;;;;;;;;;;5065115;28;20032;-70
2023/05/14 02:06:06;;;;;;;39.85;8.77;;;;;;;;;;5061069;28;20519;-70
2023/05/14 02:08:32;;;;;;;42.70;9.88;;;;;;;;;;5062812;28;20071;-70
2023/05/14 02:10:58;;;;;;;42.67;8.55;;;;;;;;;;5060851;28;20041;-70
2023/05/14 02:13:25;;;;;;;35.90;8.55;;;;;;;;;;5061967;28;20032;-70
2023/05/14 02:15:52;;;;;;;52.17;9.32;;;;;;;;;;5061191;28;20044;-71
2023/05/14 02:18:18;;;;;;;37.92;9.10;;;;;;;;;;5060580;28;20871;-71
2023/05/14 02:20:44;;;;;;;47.22;8.70;;;;;;;;;;5062008;28;20029;-71
2023/05/14 02:23:10;;;;;;;37.30;7.88;;;;;;;;;;5063148;28;20027;-71
2023/05/14 02:25:37;;;;;;;39.38;8.65;;;;;;;;;;5063736;28;20064;-71
2023/05/14 02:28:03;;;;;;;46.42;10.00;;;;;;;;;;5060779;28;20103;-71
2023/05/14 02:30:30;;;;;;;46.95;8.75;;;;;;;;;;5061960;28;20077;-71
2023/05/14 02:32:56;;;;;;;40.35;9.07;;;;;;;;;;5064760;28;20032;-71
2023/05/14 02:35:23;;;;;;;43.85;8.77;;;;;;;;;;5065759;28;20871;-70
2023/05/14 02:37:49;;;;;;;46.65;9.13;;;;;;;;;;5064522;28;20085;-70
2023/05/14 02:40:15;;;;;;;55.05;9.07;;;;;;;;;;5062103;28;20032;-70
2023/05/14 02:42:41;;;;;;;42.65;8.32;;;;;;;;;;5063923;28;20059;-70
2023/05/14 02:45:07;;;;;;;56.80;8.60;;;;;;;;;;5065160;28;20028;-71
2023/05/14 02:47:34;;;;;;;43.60;9.93;;;;;;;;;;5066452;28;20408;-70
2023/05/14 02:50:00;;;;;;;44.25;9.55;;;;;;;;;;5065423;28;20366;-70
2023/05/14 02:52:26;;;;;;;42.95;9.20;;;;;;;;;;5065742;28;20218;-70
2023/05/14 02:54:52;;;;;;;39.08;8.20;;;;;;;;;;5059665;28;20031;-70
2023/05/14 02:57:19;;;;;;;44.55;7.88;;;;;;;;;;5062086;28;20039;-70
2023/05/14 02:59:46;;;;;;;35.72;8.07;;;;;;;;;;5063709;28;20069;-70
2023/05/14 03:02:12;;;;;;;39.88;8.32;;;;;;;;;;5063071;28;20036;-70
2023/05/14 03:04:38;;;;;;;43.33;8.00;;;;;;;;;;5064591;28;20032;-70
2023/05/14 03:07:04;;;;;;;48.13;9.07;;;;;;;;;;5064039;28;20032;-70
2023/05/14 03:09:30;;;;;;;47.22;10.32;;;;;;;;;;5064464;28;20077;-70
2023/05/14 03:11:56;;;;;;;49.17;10.85;;;;;;;;;;5065677;28;20032;-70
2023/05/14 03:14:23;;;;;;;64.13;10.75;;;;;;;;;;5065053;28;20035;-70
2023/05/14 03:16:50;;;;;;;61.33;11.32;;;;;;;;;;5062601;28;20039;-70
2023/05/14 03:19:16;;;;;;;55.50;9.43;;;;;;;;;;5060346;28;20028;-71
2023/05/14 03:21:42;;;;;;;50.83;9.43;;;;;;;;;;5060165;28;20756;-71
2023/05/14 03:24:08;;;;;;;56.85;10.27;;;;;;;;;;5055553;28;20021;-70
2023/05/14 03:26:36;;;;;;;56.03;10.65;;;;;;;;;;5057293;28;20302;-71
2023/05/14 03:29:02;;;;;;;61.85;11.18;;;;;;;;;;5060152;28;20084;-71
2023/05/14 03:31:29;;;;;;;47.78;11.35;;;;;;;;;;5058458;28;20029;-70
2023/05/14 03:33:55;;;;;;;36.63;9.30;;;;;;;;;;5053356;28;20035;-70
2023/05/14 03:36:21;;;;;;;42.50;8.90;;;;;;;;;;5060406;28;20033;-71
2023/05/14 03:38:47;;;;;;;40.72;9.05;;;;;;;;;;5059076;28;20031;-70
2023/05/14 03:41:13;;;;;;;50.58;9.02;;;;;;;;;;5059755;28;20017;-71
2023/05/14 03:43:39;;;;;;;51.60;10.20;;;;;;;;;;5059284;28;20075;-70
2023/05/14 03:46:06;;;;;;;69.57;10.60;;;;;;;;;;5060671;28;20025;-70
2023/05/14 03:48:32;;;;;;;45.17;9.50;;;;;;;;;;5060344;28;20020;-71
2023/05/14 03:50:58;;;;;;;52.58;10.10;;;;;;;;;;5059794;28;20033;-72
2023/05/14 03:53:24;;;;;;;54.88;10.20;;;;;;;;;;5058578;28;20035;-71
2023/05/14 03:55:51;;;;;;;46.38;8.88;;;;;;;;;;5057228;28;20788;-72
2023/05/14 03:58:17;;;;;;;44.40;8.68;;;;;;;;;;5053479;28;20040;-71
2023/05/14 04:00:43;;;;;;;60.38;11.43;;;;;;;;;;5054966;28;20029;-72
2023/05/14 04:03:09;;;;;;;58.15;11.20;;;;;;;;;;5058928;28;20032;-71
2023/05/14 04:05:36;;;;;;;42.40;11.20;;;;;;;;;;5055993;28;20044;-71
2023/05/14 04:08:02;;;;;;;60.70;11.80;;;;;;;;;;5056870;28;20024;-70
2023/05/14 04:10:28;;;;;;;51.25;12.30;;;;;;;;;;5055191;28;20037;-70
2023/05/14 04:12:55;;;;;;;51.10;11.68;;;;;;;;;;5062939;28;20024;-70
2023/05/14 04:15:21;;;;;;;57.03;11.95;;;;;;;;;;5063371;28;20043;-70
2023/05/14 04:17:47;;;;;;;47.30;10.23;;;;;;;;;;5064393;28;20021;-72
2023/05/14 04:20:13;;;;;;;45.90;9.82;;;;;;;;;;5056351;28;20049;-71
2023/05/14 04:22:39;;;;;;;52.55;10.32;;;;;;;;;;5062496;28;20055;-70
2023/05/14 04:25:06;;;;;;;44.67;10.13;;;;;;;;;;5060070;28;20070;-71
2023/05/14 04:27:33;;;;;;;59.05;11.60;;;;;;;;;;5055937;28;20797;-70
2023/05/14 04:30:00;;;;;;;56.15;9.93;;;;;;;;;;5056045;28;20028;-71
2023/05/14 04:32:26;;;;;;;50.22;10.32;;;;;;;;;;5063366;28;20034;-72
2023/05/14 04:34:52;;;;;;;57.53;10.55;;;;;;;;;;5061786;28;20037;-71
2023/05/14 04:37:18;;;;;;;57.25;10.63;;;;;;;;;;5056056;28;20029;-71
2023/05/14 04:39:44;;;;;;;57.42;10.45;;;;;;;;;;5061585;28;20384;-71
2023/05/14 04:42:11;;;;;;;57.45;10.63;;;;;;;;;;5059768;28;20036;-69
2023/05/14 04:44:37;;;;;;;46.20;11.60;;;;;;;;;;5063263;28;20075;-70
2023/05/14 04:47:03;;;;;;;62.40;11.20;;;;;;;;;;5063795;28;20131;-70
2023/05/14 04:49:30;;;;;;;48.88;12.23;;;;;;;;;;5059132;28;20032;-70
2023/05/14 04:51:57;;;;;;;48.03;13.18;;;;;;;;;;5062711;28;20039;-71
2023/05/14 04:54:23;;;;;;;49.15;14.00;;;;;;;;;;5055530;28;20036;-70
2023/05/14 04:56:50;;;;;;;61.38;16.38;;;;;;;;;;5059735;28;20046;-72
2023/05/14 04:59:16;;;;;;;70.20;15.10;;;;;;;;;;5057493;28;20036;-73
2023/05/14 05:01:42;;;;;;;53.67;12.38;;;;;;;;;;5060238;28;20071;-71
2023/05/14 05:04:08;;;;;;;53.80;14.10;;;;;;;;;;5062123;28;20126;-71
2023/05/14 05:06:35;;;;;;;52.63;14.20;;;;;;;;;;5061106;28;20021;-73
2023/05/14 05:09:01;;;;;;;65.40;14.50;;;;;;;;;;5057618;28;20028;-72
2023/05/14 05:11:27;;;;;;;54.33;13.32;;;;;;;;;;5059518;28;20052;-72
2023/05/14 05:13:53;;;;;;;59.80;14.25;;;;;;;;;;5060820;28;20024;-73
2023/05/14 05:16:19;;;;;;;77.60;16.02;;;;;;;;;;5060452;28;20342;-72
2023/05/14 05:18:46;;;;;;;59.40;14.93;;;;;;;;;;5058592;28;20025;-72
2023/05/14 05:21:12;;;;;;;58.15;17.33;;;;;;;;;;5059522;28;20051;-71
2023/05/14 05:23:38;;;;;;;57.22;15.48;;;;;;;;;;5060527;28;20401;-71
2023/05/14 05:26:04;;;;;;;58.72;14.80;;;;;;;;;;5058072;28;20081;-72
2023/05/14 05:28:30;;;;;;;50.65;14.20;;;;;;;;;;5056904;28;20075;-71
2023/05/14 05:30:57;;;;;;;55.88;13.65;;;;;;;;;;5053980;28;20311;-72
2023/05/14 05:33:23;;;;;;;60.95;14.73;;;;;;;;;;5058388;28;20184;-72
2023/05/14 05:35:51;;;;;;;67.85;16.75;;;;;;;;;;5056277;28;20048;-73
2023/05/14 05:38:17;;;;;;;65.07;14.20;;;;;;;;;;5059899;28;20020;-73
2023/05/14 05:40:43;;;;;;;65.85;13.45;;;;;;;;;;5060856;28;20032;-68
2023/05/14 05:43:09;;;;;;;57.35;12.38;;;;;;;;;;5059483;28;20025;-68
2023/05/14 05:45:36;;;;;;;52.47;14.52;;;;;;;;;;5056103;28;20028;-70
2023/05/14 05:48:02;;;;;;;54.72;11.40;;;;;;;;;;5060614;28;20815;-71
2023/05/14 05:50:28;;;;;;;57.08;11.73;;;;;;;;;;5059387;28;20461;-71
2023/05/14 05:52:54;;;;;;;60.38;12.75;;;;;;;;;;5053837;28;20025;-69
2023/05/14 05:55:21;;;;;;;53.30;13.50;;;;;;;;;;5056418;28;20115;-72
2023/05/14 05:57:47;;;;;;;61.25;13.55;;;;;;;;;;5058182;28;20511;-70
2023/05/14 06:00:14;;;;;;;55.42;14.40;;;;;;;;;;5056860;28;20492;-71
2023/05/14 06:02:40;;;;;;;62.08;14.95;;;;;;;;;;5060373;28;20542;-72
2023/05/14 06:05:07;;;;;;;60.53;13.63;;;;;;;;;;5016759;28;1258560;-71
2023/05/14 06:07:34;;;;;;;60.00;12.25;;;;;;;;;;5060030;28;20063;-72
2023/05/14 06:10:00;;;;;;;47.20;11.48;;;;;;;;;;5060656;28;20103;-71
2023/05/14 06:12:26;;;;;;;66.85;13.30;;;;;;;;;;5062164;28;20027;-71
2023/05/14 06:14:56;;;;;;;56.72;12.23;;;;;;;;;;5060549;28;20032;-73
2023/05/14 06:17:25;;;;;;;61.40;12.35;;;;;;;;;;5058654;28;20059;-73
2023/05/14 06:19:52;;;;;;;49.95;12.93;;;;;;;;;;5056504;28;20021;-70
2023/05/14 06:22:19;;;;;;;62.50;13.52;;;;;;;;;;5060198;28;20640;-73
2023/05/14 06:24:45;;;;;;;63.97;13.48;;;;;;;;;;5059663;28;20021;-72
2023/05/14 06:27:11;;;;;;;57.55;13.02;;;;;;;;;;5058643;28;20036;-70
2023/05/14 06:29:37;;;;;;;53.40;12.63;;;;;;;;;;5058856;28;20100;-71
2023/05/14 06:32:04;;;;;;;62.78;13.25;;;;;;;;;;5058936;28;20532;-72
2023/05/14 06:34:30;;;;;;;60.92;12.52;;;;;;;;;;5059781;28;20772;-73
2023/05/14 06:36:57;;;;;;;70.60;14.93;;;;;;;;;;5058832;28;20051;-73
2023/05/14 06:39:23;;;;;;;60.00;13.60;;;;;;;;;;5060007;28;20387;-73
2023/05/14 06:41:49;;;;;;;65.72;14.80;;;;;;;;;;5060808;28;20037;-71
2023/05/14 06:44:16;;;;;;;73.90;13.90;;;;;;;;;;5071376;28;20136;-73
2023/05/14 06:46:42;;;;;;;64.55;14.80;;;;;;;;;;5059430;28;20028;-72
2023/05/14 06:49:08;;;;;;;61.92;13.75;;;;;;;;;;5060584;28;20511;-71
2023/05/14 06:51:34;;;;;;;55.28;13.38;;;;;;;;;;5059621;28;20443;-71
2023/05/14 06:54:00;;;;;;;55.45;13.07;;;;;;;;;;5057361;28;20039;-73
2023/05/14 06:56:27;;;;;;;59.38;13.68;;;;;;;;;;5058170;28;20115;-73
2023/05/14 06:58:53;;;;;;;59.95;12.93;;;;;;;;;;5060490;28;20066;-71
2023/05/14 07:01:19;;;;;;;50.50;11.30;;;;;;;;;;5060184;28;20032;-70
2023/05/14 07:03:45;;;;;;;57.30;12.88;;;;;;;;;;5058115;28;20034;-70
2023/05/14 07:06:12;;;;;;;55.13;10.65;;;;;;;;;;5057397;28;20051;-70
2023/05/14 07:08:39;;;;;;;77.53;12.43;;;;;;;;;;5060831;28;20017;-71
2023/05/14 07:11:05;;;;;;;50.00;11.20;;;;;;;;;;5058905;28;20020;-71
2023/05/14 07:13:31;;;;;;;58.00;11.35;;;;;;;;;;5058262;28;20186;-71
2023/05/14 07:15:57;;;;;;;53.20;11.30;;;;;;;;;;5059363;28;20097;-71
2023/05/14 07:18:23;;;;;;;41.42;11.73;;;;;;;;;;5060220;28;20021;-70
2023/05/14 07:20:49;;;;;;;57.45;12.10;;;;;;;;;;5057842;28;20036;-70
2023/05/14 07:23:16;;;;;;;58.25;11.73;;;;;;;;;;5057869;28;20093;-70
2023/05/14 07:25:42;;;;;;;53.97;10.35;;;;;;;;;;5058058;28;20032;-71
2023/05/14 07:28:08;;;;;;;57.22;12.25;;;;;;;;;;5059387;28;20166;-71
2023/05/14 07:30:34;;;;;;;56.85;11.93;;;;;;;;;;5059488;28;20573;-71
2023/05/14 07:33:00;;;;;;;50.13;11.55;;;;;;;;;;5057418;28;20024;-70
2023/05/14 07:35:26;;;;;;;58.05;11.40;;;;;;;;;;5059181;28;20476;-71
2023/05/14 07:37:53;;;;;;;56.85;12.40;;;;;;;;;;5059721;28;20044;-70
2023/05/14 07:40:19;;;;;;;52.28;11.48;;;;;;;;;;5060222;28;20714;-71
2023/05/14 07:42:45;;;;;;;61.75;12.63;;;;;;;;;;5058761;28;20882;-71
2023/05/14 07:45:11;;;;;;;50.75;11.68;;;;;;;;;;5059184;28;20031;-69
2023/05/14 07:47:39;;;;;;;48.85;12.02;;;;;;;;;;5059972;28;20025;-71
2023/05/14 07:50:06;;;;;;;52.67;11.95;;;;;;;;;;5058080;28;20536;-71
2023/05/14 07:52:32;;;;;;;62.55;11.45;;;;;;;;;;5057534;28;20482;-70
2023/05/14 07:55:00;;;;;;;59.22;11.60;;;;;;;;;;5059310;28;20346;-71
2023/05/14 07:57:26;;;;;;;51.58;12.77;;;;;;;;;;5058595;28;20070;-71
2023/05/14 07:59:52;;;;;;;59.78;11.25;;;;;;;;;;5058868;28;20162;-72
2023/05/14 08:02:18;;;;;;;66.70;11.80;;;;;;;;;;5058215;28;20865;-70
2023/05/14 08:04:45;;;;;;;55.25;11.27;;;;;;;;;;5058573;28;20048;-71
2023/05/14 08:07:11;;;;;;;50.15;10.70;;;;;;;;;;5058574;28;20027;-70
2023/05/14 08:09:37;;;;;;;53.45;11.63;;;;;;;;;;5058913;28;20037;-71
2023/05/14 08:12:04;;;;;;;39.53;11.05;;;;;;;;;;5058914;28;20024;-71
2023/05/14 08:14:30;;;;;;;48.47;11.68;;;;;;;;;;5054956;28;20063;-70
2023/05/14 08:16:56;;;;;;;57.25;11.40;;;;;;;;;;5051403;28;20033;-71
2023/05/14 08:19:23;;;;;;;46.10;10.05;;;;;;;;;;5057043;28;20078;-71
2023/05/14 08:21:50;;;;;;;53.22;12.70;;;;;;;;;;5059206;28;20037;-71
2023/05/14 08:24:16;;;;;;;66.40;11.90;;;;;;;;;;5058603;28;20408;-69
2023/05/14 08:26:42;;;;;;;72.35;12.57;;;;;;;;;;5056702;28;20029;-70
2023/05/14 08:29:08;;;;;;;52.17;10.18;;;;;;;;;;5059932;28;20527;-70
2023/05/14 08:31:35;;;;;;;63.53;11.18;;;;;;;;;;5057308;28;20190;-71
2023/05/14 08:34:01;;;;;;;46.60;10.95;;;;;;;;;;5058353;28;20104;-71
2023/05/14 08:36:27;;;;;;;52.88;11.00;;;;;;;;;;5056775;28;20085;-71
2023/05/14 08:38:53;;;;;;;50.03;11.25;;;;;;;;;;5059772;28;20100;-70
2023/05/14 08:41:20;;;;;;;45.53;9.95;;;;;;;;;;5057701;28;20043;-71
2023/05/14 08:44:06;;;;;;;60.03;11.48;;;;;;;;;;5059160;28;20017;-70
2023/05/14 08:46:32;;;;;;;48.85;9.73;;;;;;;;;;5056693;28;20024;-70
2023/05/14 08:49:08;;;;;;;47.38;9.30;;;;;;;;;;5057816;28;20048;-72
2023/05/14 08:51:35;;;;;;;40.70;8.98;;;;;;;;;;5054516;28;20021;-70
2023/05/14 08:54:02;;;;;;;31.15;8.20;;;;;;;;;;5057326;28;20508;-71
2023/05/14 08:56:32;;;;;;;34.33;8.57;;;;;;;;;;5061296;28;20048;-72
2023/05/14 08:58:58;;;;;;;38.03;7.55;;;;;;;;;;5056984;28;20104;-74
2023/05/14 09:01:25;;;;;;;28.00;7.03;;;;;;;;;;5062844;28;20335;-70
2023/05/14 09:03:52;;;;;;;35.70;8.00;;;;;;;;;;5062878;28;20032;-70
2023/05/14 09:06:18;;;;;;;32.72;8.18;;;;;;;;;;5064751;28;20063;-72
2023/05/14 09:08:45;;;;;;;33.58;7.95;;;;;;;;;;5064352;28;20100;-71
2023/05/14 09:11:12;;;;;;;35.75;9.05;;;;;;;;;;5063797;28;20033;-70
2023/05/14 09:13:38;;;;;;;31.80;8.40;;;;;;;;;;5059545;28;20038;-72
2023/05/14 09:16:05;;;;;;;38.38;7.53;;;;;;;;;;5058975;28;20036;-74
2023/05/14 09:18:31;;;;;;;35.25;8.07;;;;;;;;;;5062051;28;20064;-69
2023/05/14 09:20:57;;;;;;;33.45;8.05;;;;;;;;;;5062594;28;20024;-68
2023/05/14 09:23:26;;;;;;;134.40;16.98;;;;;;;;;;5060321;28;20031;-67
2023/05/14 09:25:52;;;;;;;41.40;9.70;;;;;;;;;;5063848;28;20119;-67
2023/05/14 09:28:20;;;;;;;134.63;15.38;;;;;;;;;;5061872;28;20242;-68
2023/05/14 09:30:52;;;;;;;52.97;8.13;;;;;;;;;;5063587;28;20028;-67
2023/05/14 09:33:28;;;;;;;25.50;7.57;;;;;;;;;;5062974;28;20029;-68
2023/05/14 09:35:57;;;;;;;21.95;7.13;;;;;;;;;;5059221;28;20089;-67
2023/05/14 09:38:27;;;;;;;23.15;6.32;;;;;;;;;;5057577;28;20028;-68
2023/05/14 09:40:54;;;;;;;18.58;6.07;;;;;;;;;;5061996;28;20049;-69
2023/05/14 09:43:20;;;;;;;33.20;8.25;;;;;;;;;;5064018;28;20104;-67
2023/05/14 09:45:46;;;;;;;46.92;7.43;;;;;;;;;;5064263;28;20180;-68
2023/05/14 09:48:12;;;;;;;25.63;6.10;;;;;;;;;;5060545;28;20016;-70
2023/05/14 09:50:45;;;;;;;25.75;6.47;;;;;;;;;;5058503;28;20032;-69
2023/05/14 09:53:12;;;;;;;25.33;6.70;;;;;;;;;;5061692;28;20017;-68
2023/05/14 09:55:38;;;;;;;16.60;5.68;;;;;;;;;;5057818;28;20060;-69
2023/05/14 09:58:04;;;;;;;28.33;6.88;;;;;;;;;;5061382;28;20054;-69
2023/05/14 10:00:32;;;;;;;19.23;6.15;;;;;;;;;;5060480;28;20122;-70
2023/05/14 10:02:58;;;;;;;21.92;6.07;;;;;;;;;;5055483;28;20055;-70
2023/05/14 10:05:25;;;;;;;22.27;6.68;;;;;;;;;;5059909;28;20040;-69
2023/05/14 10:07:53;;;;;;;24.73;6.95;;;;;;;;;;5060888;28;20163;-69
2023/05/14 10:10:20;;;;;;;17.20;5.85;;;;;;;;;;5052872;28;20106;-71
2023/05/14 10:12:56;;;;;;;19.08;5.55;;;;;;;;;;5057356;28;20179;-70
2023/05/14 10:15:25;;;;;;;24.95;6.40;;;;;;;;;;5055910;28;20036;-70
2023/05/14 10:17:55;;;;;;;17.50;5.38;;;;;;;;;;5060210;28;20036;-71
2023/05/14 10:20:22;;;;;;;12.02;5.35;;;;;;;;;;5055441;28;20039;-71
2023/05/14 10:22:49;;;;;;;15.95;5.75;;;;;;;;;;5054218;28;20025;-71
2023/05/14 10:25:15;;;;;;;15.93;5.05;;;;;;;;;;5058223;28;20028;-71
2023/05/14 10:27:42;;;;;;;19.33;5.32;;;;;;;;;;5054654;28;20028;-70
2023/05/14 10:30:11;;;;;;;12.98;4.43;;;;;;;;;;5058527;28;20107;-71
2023/05/14 10:32:40;;;;;;;14.75;4.70;;;;;;;;;;5054460;28;20032;-71
2023/05/14 10:35:16;;;;;;;17.42;5.00;;;;;;;;;;5058172;28;20033;-69
2023/05/14 10:37:45;;;;;;;14.43;5.93;;;;;;;;;;5056700;28;20834;-73
2023/05/14 10:40:12;;;;;;;18.17;5.57;;;;;;;;;;5056892;28;20107;-73
2023/05/14 10:42:45;;;;;;;9.05;4.53;;;;;;;;;;5059804;28;20098;-75
2023/05/14 10:45:12;;;;;;;21.90;4.70;;;;;;;;;;5058237;28;20555;-72
2023/05/14 10:47:39;;;;;;;11.40;4.70;;;;;;;;;;5059318;28;20051;-72
2023/05/14 10:50:06;;;;;;;13.73;5.53;;;;;;;;;;5059953;28;20058;-73
2023/05/14 10:52:33;;;;;;;13.93;4.35;;;;;;;;;;5058021;28;20610;-75
2023/05/14 10:55:07;;;;;;;12.88;5.05;;;;;;;;;;5058108;28;20051;-75
2023/05/14 10:57:35;;;;;;;12.48;4.82;;;;;;;;;;5058026;28;20479;-74
2023/05/14 11:00:04;;;;;;;12.43;4.50;;;;;;;;;;5054133;28;20532;-71
2023/05/14 11:02:35;;;;;;;10.07;4.75;;;;;;;;;;5058201;28;20036;-74
2023/05/14 11:05:04;;;;;;;;;;;;;;;;;;5058472;28;20061;-72
2023/05/14 11:07:31;;;;;;;13.63;4.55;;;;;;;;;;5059949;28;20402;-71
2023/05/14 11:09:59;;;;;;;13.52;4.72;;;;;;;;;;5052612;28;20027;-72
2023/05/14 11:12:26;;;;;;;15.52;4.90;;;;;;;;;;5056385;28;20086;-69
2023/05/14 11:14:53;;;;;;;18.27;5.60;;;;;;;;;;5057405;28;20044;-70
2023/05/14 11:17:19;;;;;;;14.40;5.13;;;;;;;;;;5058115;28;20036;-72
2023/05/14 11:19:46;;;;;;;11.32;5.55;;;;;;;;;;5055298;28;20763;-76
2023/05/14 11:22:15;;;;;;;15.32;5.90;;;;;;;;;;5058775;28;20029;-75
2023/05/14 11:24:41;;;;;;;15.30;5.57;;;;;;;;;;5056949;28;20021;-76
2023/05/14 11:27:08;;;;;;;14.02;5.57;;;;;;;;;;5057257;28;20032;-78
2023/05/14 11:29:37;;;;;;;11.88;5.50;;;;;;;;;;5058712;28;20028;-72
2023/05/14 11:32:05;;;;;;;16.63;6.13;;;;;;;;;;5055958;28;20420;-71
2023/05/14 11:34:32;;;;;;;15.80;4.63;;;;;;;;;;5054599;28;20032;-72
2023/05/14 11:36:58;;;;;;;17.38;5.50;;;;;;;;;;5059377;28;20036;-76
2023/05/14 11:39:24;;;;;;;14.88;5.03;;;;;;;;;;5054349;28;20025;-71
2023/05/14 11:41:51;;;;;;;12.15;4.53;;;;;;;;;;5054598;28;20032;-72
2023/05/14 11:44:17;;;;;;;15.43;4.85;;;;;;;;;;5052916;28;20028;-71
2023/05/14 11:46:53;;;;;;;14.35;4.43;;;;;;;;;;5056341;28;20028;-72
2023/05/14 11:49:21;;;;;;;12.77;4.40;;;;;;;;;;5057294;28;20032;-72
2023/05/14 11:51:47;;;;;;;17.10;4.30;;;;;;;;;;5056588;28;20032;-71
2023/05/14 11:54:14;;;;;;;15.10;4.30;;;;;;;;;;5054415;28;20107;-71
2023/05/14 11:56:40;;;;;;;10.57;3.45;;;;;;;;;;5059307;28;20388;-71
2023/05/14 11:59:06;;;;;;;9.52;3.45;;;;;;;;;;5057405;28;20052;-72
2023/05/14 12:01:39;;;;;;;11.35;3.53;;;;;;;;;;5049667;28;20118;-71
2023/05/14 12:04:05;;;;;;;12.02;3.25;;;;;;;;;;5051679;28;20101;-71
2023/05/14 12:06:32;;;;;;;12.35;3.70;;;;;;;;;;5054600;28;20783;-71
2023/05/14 12:08:59;;;;;;;9.88;3.63;;;;;;;;;;5056725;28;20465;-71
2023/05/14 12:11:30;;;;;;;6.75;3.10;;;;;;;;;;5053148;28;20040;-71
2023/05/14 12:13:56;;;;;;;6.70;2.40;;;;;;;;;;5057000;28;20032;-71
2023/05/14 12:16:22;;;;;;;10.73;2.72;;;;;;;;;;5057292;28;20604;-70
2023/05/14 12:18:48;;;;;;;6.15;2.72;;;;;;;;;;5054273;28;20124;-71
2023/05/14 12:21:15;;;;;;;10.57;4.25;;;;;;;;;;5057150;28;20038;-71
2023/05/14 12:23:41;;;;;;;8.05;3.83;;;;;;;;;;5058012;28;20473;-73
2023/05/14 12:26:08;;;;;;;7.07;3.15;;;;;;;;;;5057210;28;20021;-71
2023/05/14 12:28:35;;;;;;;7.35;3.20;;;;;;;;;;5057304;28;20029;-71
2023/05/14 12:31:01;;;;;;;8.63;3.05;;;;;;;;;;5058536;28;20056;-71
2023/05/14 12:33:27;;;;;;;8.52;2.80;;;;;;;;;;5060521;28;20025;-71
2023/05/14 12:36:00;;;;;;;8.38;2.65;;;;;;;;;;5058298;28;20044;-71
2023/05/14 12:38:26;;;;;;;5.68;2.90;;;;;;;;;;5061752;28;20691;-70
2023/05/14 12:40:52;;;;;;;7.55;2.75;;;;;;;;;;5061476;28;20025;-71
2023/05/14 12:43:19;;;;;;;9.25;3.10;;;;;;;;;;5060354;28;20025;-71
2023/05/14 12:45:45;;;;;;;5.78;2.60;;;;;;;;;;5060956;28;20063;-69
2023/05/14 12:48:12;;;;;;;5.45;2.90;;;;;;;;;;5056307;28;20107;-71
2023/05/14 12:50:38;;;;;;;7.45;3.08;;;;;;;;;;5056394;28;20032;-72
2023/05/14 12:53:04;;;;;;;6.10;3.00;;;;;;;;;;5054148;28;20365;-70
2023/05/14 12:55:33;;;;;;;6.60;2.95;;;;;;;;;;5052393;28;20068;-70
2023/05/14 12:57:59;;;;;;;9.55;3.50;;;;;;;;;;5056759;28;20048;-71
2023/05/14 13:00:25;;;;;;;8.68;3.20;;;;;;;;;;5057438;28;20628;-71
2023/05/14 13:02:52;;;;;;;9.63;3.03;;;;;;;;;;5061053;28;20028;-72
2023/05/14 13:05:18;;;;;;;4.95;3.13;;;;;;;;;;5055173;28;20091;-72
2023/05/14 13:07:44;;;;;;;8.77;3.47;;;;;;;;;;5057596;28;20052;-70
2023/05/14 13:10:11;;;;;;;9.13;3.35;;;;;;;;;;5058900;28;20052;-70
2023/05/14 13:12:37;;;;;;;8.98;3.25;;;;;;;;;;5055331;28;20089;-71
2023/05/14 13:15:04;;;;;;;9.10;3.50;;;;;;;;;;5060200;28;20028;-70
2023/05/14 13:17:30;;;;;;;8.07;3.22;;;;;;;;;;5055833;28;20484;-70
2023/05/14 13:19:56;;;;;;;6.78;3.00;;;;;;;;;;5054762;28;20036;-69
2023/05/14 13:22:22;;;;;;;9.98;3.45;;;;;;;;;;5061663;28;20098;-69
2023/05/14 13:24:48;;;;;;;15.25;3.47;;;;;;;;;;5060805;28;20028;-69
2023/05/14 13:27:15;;;;;;;8.68;3.10;;;;;;;;;;5061269;28;20099;-70
2023/05/14 13:29:41;;;;;;;6.93;3.63;;;;;;;;;;5059363;28;20033;-70
2023/05/14 13:32:07;;;;;;;7.75;3.05;;;;;;;;;;5060200;28;20136;-70
2023/05/14 13:34:33;;;;;;;14.13;3.70;;;;;;;;;;5060969;28;20098;-69
2023/05/14 13:37:00;;;;;;;8.75;3.10;;;;;;;;;;5060934;28;20500;-71
2023/05/14 13:39:26;;;;;;;10.50;2.72;;;;;;;;;;5060433;28;20016;-71
2023/05/14 13:41:55;;;;;;;11.32;3.42;;;;;;;;;;5061174;28;20028;-71
2023/05/14 13:44:21;;;;;;;11.27;2.70;;;;;;;;;;5060487;28;20581;-71
2023/05/14 13:46:48;;;;;;;11.95;3.38;;;;;;;;;;5061807;28;20028;-71
2023/05/14 13:49:14;;;;;;;10.60;3.53;;;;;;;;;;5058638;28;20013;-71
2023/05/14 13:51:40;;;;;;;10.05;3.65;;;;;;;;;;5057033;28;20051;-71
2023/05/14 13:54:07;;;;;;;9.30;3.55;;;;;;;;;;5059415;28;20027;-71
2023/05/14 13:56:33;;;;;;;11.13;3.85;;;;;;;;;;5059073;28;20039;-71
2023/05/14 13:58:59;;;;;;;8.40;3.53;;;;;;;;;;5058788;28;20024;-71
2023/05/14 14:01:26;;;;;;;11.93;3.90;;;;;;;;;;5060617;28;20028;-71
2023/05/14 14:03:52;;;;;;;12.82;3.70;;;;;;;;;;5056224;28;20040;-70
2023/05/14 14:06:18;;;;;;;10.85;3.80;;;;;;;;;;5058322;28;20526;-71
2023/05/14 14:08:44;;;;;;;9.50;3.92;;;;;;;;;;5061341;28;20055;-71
2023/05/14 14:11:12;;;;;;;10.98;3.80;;;;;;;;;;5057765;28;20873;-71
2023/05/14 14:13:38;;;;;;;13.93;3.67;;;;;;;;;;5060635;28;20013;-71
2023/05/14 14:16:05;;;;;;;17.13;4.22;;;;;;;;;;5053572;28;20040;-71
2023/05/14 14:18:32;;;;;;;7.75;3.47;;;;;;;;;;5048896;28;20495;-71
2023/05/14 14:20:58;;;;;;;14.93;4.00;;;;;;;;;;5060527;28;20040;-73
2023/05/14 14:23:24;;;;;;;9.82;3.92;;;;;;;;;;5060339;28;20036;-71
2023/05/14 14:25:50;;;;;;;13.38;4.00;;;;;;;;;;5056292;28;20097;-71